Terminal Aerodrome Forecast
Issued by NWS

Home | Current Version | Previous Version | Text Only | Print | Product List | Glossary On
Versions: 1 2 3 4 5 6 7 8 9 10 11 12 13 14 15 16 17 18
000
FTUS43 KICT 291727
TAFHUT
TAF
KHUT 291727Z 2918/3018 14007KT P6SM SCT030 BKN070
     FM292200 04007KT P6SM VCTS SCT050 BKN070CB
     FM300200 05007KT P6SM SCT050 BKN100
     FM301000 VRB03KT P6SM SCT015 BKN070=

USA.gov is the U.S. government's official web portal to all federal, state and local government web resources and services.